sensor_id;sensor_type;location;lat;lon;timestamp;pressure;altitude;pressure_sealevel;temperature;humidity
75192;BME280;63771;52.580;9.734;2023-02-22T00:01:51;101308.59;;;7.43;92.98
75192;BME280;63771;52.580;9.734;2023-02-22T00:04:37;101308.59;;;7.43;93.09
75192;BME280;63771;52.580;9.734;2023-02-22T00:07:04;101310.66;;;7.38;93.01
75192;BME280;63771;52.580;9.734;2023-02-22T00:09:29;101313.34;;;7.40;92.98
75192;BME280;63771;52.580;9.734;2023-02-22T00:11:55;101315.72;;;7.38;93.04
75192;BME280;63771;52.580;9.734;2023-02-22T00:14:20;101319.91;;;7.38;93.38
75192;BME280;63771;52.580;9.734;2023-02-22T00:16:46;101320.66;;;7.37;93.12
75192;BME280;63771;52.580;9.734;2023-02-22T00:19:11;101315.41;;;7.35;93.23
75192;BME280;63771;52.580;9.734;2023-02-22T00:21:36;101321.56;;;7.37;93.36
75192;BME280;63771;52.580;9.734;2023-02-22T00:24:02;101315.59;;;7.37;93.42
75192;BME280;63771;52.580;9.734;2023-02-22T00:26:47;101321.56;;;7.37;93.73
75192;BME280;63771;52.580;9.734;2023-02-22T00:29:12;101322.44;;;7.38;93.45
75192;BME280;63771;52.580;9.734;2023-02-22T00:31:37;101318.84;;;7.36;93.89
75192;BME280;63771;52.580;9.734;2023-02-22T00:34:03;101318.13;;;7.37;93.46
75192;BME280;63771;52.580;9.734;2023-02-22T00:36:29;101314.84;;;7.38;93.49
75192;BME280;63771;52.580;9.734;2023-02-22T00:38:54;101320.06;;;7.39;93.81
75192;BME280;63771;52.580;9.734;2023-02-22T00:41:19;101308.28;;;7.40;93.84
75192;BME280;63771;52.580;9.734;2023-02-22T00:43:45;101305.88;;;7.41;93.63
75192;BME280;63771;52.580;9.734;2023-02-22T00:46:13;101303.34;;;7.41;93.90
75192;BME280;63771;52.580;9.734;2023-02-22T00:48:38;101295.56;;;7.40;93.67
75192;BME280;63771;52.580;9.734;2023-02-22T00:51:04;101304.97;;;7.41;94.00
75192;BME280;63771;52.580;9.734;2023-02-22T00:53:29;101290.34;;;7.38;93.72
75192;BME280;63771;52.580;9.734;2023-02-22T00:55:55;101293.78;;;7.39;93.82
75192;BME280;63771;52.580;9.734;2023-02-22T00:58:20;101293.44;;;7.36;93.80
75192;BME280;63771;52.580;9.734;2023-02-22T01:00:46;101283.16;;;7.34;93.69
75192;BME280;63771;52.580;9.734;2023-02-22T01:03:13;101289.72;;;7.32;93.73
75192;BME280;63771;52.580;9.734;2023-02-22T01:05:39;101285.22;;;7.29;93.74
75192;BME280;63771;52.580;9.734;2023-02-22T01:08:06;101278.00;;;7.25;93.82
75192;BME280;63771;52.580;9.734;2023-02-22T01:10:32;101272.63;;;7.22;94.15
75192;BME280;63771;52.580;9.734;2023-02-22T01:12:58;101276.81;;;7.22;94.00
75192;BME280;63771;52.580;9.734;2023-02-22T01:15:26;101271.41;;;7.19;94.23
75192;BME280;63771;52.580;9.734;2023-02-22T01:17:53;101274.69;;;7.18;94.32
75192;BME280;63771;52.580;9.734;2023-02-22T01:20:20;101280.38;;;7.15;94.21
75192;BME280;63771;52.580;9.734;2023-02-22T01:22:48;101280.94;;;7.13;94.22
75192;BME280;63771;52.580;9.734;2023-02-22T01:25:19;101276.44;;;7.10;94.28
75192;BME280;63771;52.580;9.734;2023-02-22T01:27:45;101269.41;;;7.07;94.03
75192;BME280;63771;52.580;9.734;2023-02-22T01:30:12;101269.25;;;7.06;94.27
75192;BME280;63771;52.580;9.734;2023-02-22T01:32:39;101264.75;;;7.03;94.09
75192;BME280;63771;52.580;9.734;2023-02-22T01:35:09;101266.78;;;6.99;94.18
75192;BME280;63771;52.580;9.734;2023-02-22T01:37:35;101261.41;;;6.96;94.14
75192;BME280;63771;52.580;9.734;2023-02-22T01:40:03;101255.13;;;6.92;94.23
75192;BME280;63771;52.580;9.734;2023-02-22T01:42:31;101254.81;;;6.89;94.05
75192;BME280;63771;52.580;9.734;2023-02-22T01:48:10;101262.66;;;6.84;94.00
75192;BME280;63771;52.580;9.734;2023-02-22T01:50:40;101257.28;;;6.80;94.11
75192;BME280;63771;52.580;9.734;2023-02-22T01:53:07;101251.13;;;6.78;94.26
75192;BME280;63771;52.580;9.734;2023-02-22T01:55:34;101247.53;;;6.76;94.37
75192;BME280;63771;52.580;9.734;2023-02-22T01:58:00;101249.03;;;6.74;94.40
75192;BME280;63771;52.580;9.734;2023-02-22T02:00:26;101249.78;;;6.73;94.15
75192;BME280;63771;52.580;9.734;2023-02-22T02:03:10;101247.81;;;6.71;94.31
75192;BME280;63771;52.580;9.734;2023-02-22T02:05:36;101248.38;;;6.68;94.32
75192;BME280;63771;52.580;9.734;2023-02-22T02:10:50;101243.88;;;6.66;94.57
75192;BME280;63771;52.580;9.734;2023-02-22T02:13:17;101226.25;;;6.59;94.44
75192;BME280;63771;52.580;9.734;2023-02-22T02:15:43;101234.31;;;6.63;94.66
75192;BME280;63771;52.580;9.734;2023-02-22T02:18:10;101232.50;;;6.62;94.67
75192;BME280;63771;52.580;9.734;2023-02-22T02:23:59;101237.28;;;6.59;94.53
75192;BME280;63771;52.580;9.734;2023-02-22T02:27:01;101235.47;;;6.58;94.75
75192;BME280;63771;52.580;9.734;2023-02-22T02:32:34;101226.38;;;6.60;95.07
75192;BME280;63771;52.580;9.734;2023-02-22T02:38:17;101227.44;;;6.62;95.23
75192;BME280;63771;52.580;9.734;2023-02-22T02:40:48;101229.25;;;6.63;94.88
75192;BME280;63771;52.580;9.734;2023-02-22T02:43:32;101225.09;;;6.64;95.08
75192;BME280;63771;52.580;9.734;2023-02-22T02:46:20;101223.59;;;6.66;95.10
75192;BME280;63771;52.580;9.734;2023-02-22T02:48:52;101221.97;;;6.66;95.14
75192;BME280;63771;52.580;9.734;2023-02-22T02:51:22;101221.81;;;6.65;94.88
75192;BME280;63771;52.580;9.734;2023-02-22T02:53:50;101214.75;;;6.62;95.14
75192;BME280;63771;52.580;9.734;2023-02-22T02:56:16;101209.69;;;6.62;95.05
75192;BME280;63771;52.580;9.734;2023-02-22T02:58:50;101210.13;;;6.58;95.09
75192;BME280;63771;52.580;9.734;2023-02-22T03:10:54;101199.81;;;6.41;94.84
75192;BME280;63771;52.580;9.734;2023-02-22T03:15:35;101192.63;;;6.37;95.03
75192;BME280;63771;52.580;9.734;2023-02-22T03:18:06;101199.34;;;6.36;95.05
75192;BME280;63771;52.580;9.734;2023-02-22T03:20:43;101197.69;;;6.37;95.41
75192;BME280;63771;52.580;9.734;2023-02-22T03:23:21;101197.00;;;6.38;95.37
75192;BME280;63771;52.580;9.734;2023-02-22T03:25:56;101185.22;;;6.38;95.30
75192;BME280;63771;52.580;9.734;2023-02-22T03:28:25;101184.31;;;6.38;95.16
75192;BME280;63771;52.580;9.734;2023-02-22T03:31:00;101179.25;;;6.38;95.15
75192;BME280;63771;52.580;9.734;2023-02-22T03:33:33;101174.59;;;6.34;95.13
75192;BME280;63771;52.580;9.734;2023-02-22T03:36:25;101182.75;;;6.31;95.22
75192;BME280;63771;52.580;9.734;2023-02-22T03:38:51;101178.81;;;6.26;95.30
75192;BME280;63771;52.580;9.734;2023-02-22T03:41:22;101178.03;;;6.18;94.97
75192;BME280;63771;52.580;9.734;2023-02-22T03:43:54;101174.09;;;6.13;95.08
75192;BME280;63771;52.580;9.734;2023-02-22T03:46:22;101191.84;;;6.13;95.30
75192;BME280;63771;52.580;9.734;2023-02-22T03:48:52;101184.66;;;6.09;95.27
75192;BME280;63771;52.580;9.734;2023-02-22T03:51:21;101187.59;;;6.05;95.27
75192;BME280;63771;52.580;9.734;2023-02-22T03:53:47;101184.59;;;6.00;94.62
75192;BME280;63771;52.580;9.734;2023-02-22T03:56:18;101184.78;;;5.95;94.96
75192;BME280;63771;52.580;9.734;2023-02-22T03:58:45;101179.78;;;5.88;95.12
75192;BME280;63771;52.580;9.734;2023-02-22T04:01:15;101181.06;;;5.84;95.16
75192;BME280;63771;52.580;9.734;2023-02-22T04:03:40;101178.78;;;5.79;95.16
75192;BME280;63771;52.580;9.734;2023-02-22T04:06:07;101177.59;;;5.75;95.53
75192;BME280;63771;52.580;9.734;2023-02-22T04:08:32;101173.06;;;5.72;95.72
75192;BME280;63771;52.580;9.734;2023-02-22T04:10:58;101180.34;;;5.69;95.75
75192;BME280;63771;52.580;9.734;2023-02-22T04:13:23;101179.09;;;5.66;95.61
75192;BME280;63771;52.580;9.734;2023-02-22T04:15:48;101173.53;;;5.61;95.86
75192;BME280;63771;52.580;9.734;2023-02-22T04:18:14;101170.50;;;5.57;95.83
75192;BME280;63771;52.580;9.734;2023-02-22T04:20:39;101170.00;;;5.52;95.89
75192;BME280;63771;52.580;9.734;2023-02-22T04:23:05;101162.50;;;5.45;95.50
75192;BME280;63771;52.580;9.734;2023-02-22T04:25:30;101169.34;;;5.46;95.74
75192;BME280;63771;52.580;9.734;2023-02-22T04:27:55;101168.09;;;5.42;95.95
75192;BME280;63771;52.580;9.734;2023-02-22T04:30:21;101162.97;;;5.34;95.83
75192;BME280;63771;52.580;9.734;2023-02-22T04:32:47;101161.50;;;5.36;95.91
75192;BME280;63771;52.580;9.734;2023-02-22T04:35:13;101173.97;;;5.34;96.12
75192;BME280;63771;52.580;9.734;2023-02-22T04:37:38;101169.47;;;5.32;96.31
75192;BME280;63771;52.580;9.734;2023-02-22T04:40:04;101169.16;;;5.29;96.15
75192;BME280;63771;52.580;9.734;2023-02-22T04:42:36;101167.00;;;5.24;96.37
75192;BME280;63771;52.580;9.734;2023-02-22T04:45:03;101164.88;;;5.20;96.26
75192;BME280;63771;52.580;9.734;2023-02-22T04:47:29;101166.00;;;5.15;96.40
75192;BME280;63771;52.580;9.734;2023-02-22T04:49:54;101160.44;;;5.11;96.16
75192;BME280;63771;52.580;9.734;2023-02-22T04:52:20;101166.78;;;5.07;96.22
75192;BME280;63771;52.580;9.734;2023-02-22T04:54:45;101168.81;;;5.03;96.00
75192;BME280;63771;52.580;9.734;2023-02-22T04:57:10;101151.38;;;4.90;95.96
75192;BME280;63771;52.580;9.734;2023-02-22T04:59:36;101161.84;;;4.93;95.96
75192;BME280;63771;52.580;9.734;2023-02-22T05:02:01;101161.31;;;4.88;96.24
75192;BME280;63771;52.580;9.734;2023-02-22T05:04:27;101160.81;;;4.84;96.13
75192;BME280;63771;52.580;9.734;2023-02-22T05:06:52;101157.97;;;4.81;96.46
75192;BME280;63771;52.580;9.734;2023-02-22T05:09:17;101157.59;;;4.78;96.47
75192;BME280;63771;52.580;9.734;2023-02-22T05:11:43;101157.09;;;4.73;96.38
75192;BME280;63771;52.580;9.734;2023-02-22T05:14:08;101156.19;;;4.72;96.20
75192;BME280;63771;52.580;9.734;2023-02-22T05:16:34;101162.72;;;4.70;96.21
75192;BME280;63771;52.580;9.734;2023-02-22T05:19:00;101154.63;;;4.66;96.68
75192;BME280;63771;52.580;9.734;2023-02-22T05:21:25;101147.03;;;4.66;96.54
75192;BME280;63771;52.580;9.734;2023-02-22T05:23:50;101150.09;;;4.63;96.44
75192;BME280;63771;52.580;9.734;2023-02-22T05:26:16;101150.69;;;4.61;96.52
75192;BME280;63771;52.580;9.734;2023-02-22T05:28:41;101152.09;;;4.59;96.57
75192;BME280;63771;52.580;9.734;2023-02-22T05:31:06;101150.16;;;4.56;96.44
75192;BME280;63771;52.580;9.734;2023-02-22T05:33:32;101141.53;;;4.54;96.33
75192;BME280;63771;52.580;9.734;2023-02-22T05:35:58;101141.53;;;4.54;96.43
75192;BME280;63771;52.580;9.734;2023-02-22T05:38:24;101139.00;;;4.54;96.66
75192;BME280;63771;52.580;9.734;2023-02-22T05:40:49;101139.31;;;4.57;96.38
75192;BME280;63771;52.580;9.734;2023-02-22T05:43:14;101136.84;;;4.50;96.56
75192;BME280;63771;52.580;9.734;2023-02-22T05:45:40;101135.00;;;4.56;96.34
75192;BME280;63771;52.580;9.734;2023-02-22T05:48:06;101138.25;;;4.55;96.47
75192;BME280;63771;52.580;9.734;2023-02-22T05:50:32;101141.16;;;4.51;96.09
75192;BME280;63771;52.580;9.734;2023-02-22T05:52:58;101133.22;;;4.48;96.15
75192;BME280;63771;52.580;9.734;2023-02-22T05:55:23;101138.13;;;4.47;96.22
75192;BME280;63771;52.580;9.734;2023-02-22T05:57:50;101124.97;;;4.42;96.08
75192;BME280;63771;52.580;9.734;2023-02-22T06:00:28;101124.06;;;4.41;96.57
75192;BME280;63771;52.580;9.734;2023-02-22T06:05:24;101131.28;;;4.38;96.27
75192;BME280;63771;52.580;9.734;2023-02-22T06:07:50;101122.66;;;4.36;96.56
75192;BME280;63771;52.580;9.734;2023-02-22T06:10:17;101128.59;;;4.37;96.69
75192;BME280;63771;52.580;9.734;2023-02-22T06:12:42;101126.06;;;4.37;96.55
75192;BME280;63771;52.580;9.734;2023-02-22T06:15:08;101131.84;;;4.36;96.52
75192;BME280;63771;52.580;9.734;2023-02-22T06:17:34;101122.81;;;4.38;96.45
75192;BME280;63771;52.580;9.734;2023-02-22T06:20:00;101119.38;;;4.37;96.45
75192;BME280;63771;52.580;9.734;2023-02-22T06:22:26;101123.72;;;4.38;96.48
75192;BME280;63771;52.580;9.734;2023-02-22T06:24:51;101126.06;;;4.37;96.45
75192;BME280;63771;52.580;9.734;2023-02-22T06:27:16;101117.28;;;4.33;96.46
75192;BME280;63771;52.580;9.734;2023-02-22T06:29:45;101124.13;;;4.34;96.90
75192;BME280;63771;52.580;9.734;2023-02-22T06:32:11;101125.75;;;4.34;96.86
75192;BME280;63771;52.580;9.734;2023-02-22T06:34:37;101113.50;;;4.30;96.84
75192;BME280;63771;52.580;9.734;2023-02-22T06:37:03;101120.50;;;4.32;96.94
75192;BME280;63771;52.580;9.734;2023-02-22T06:39:29;101122.13;;;4.32;97.27
75192;BME280;63771;52.580;9.734;2023-02-22T06:41:54;101119.59;;;4.32;96.99
75192;BME280;63771;52.580;9.734;2023-02-22T06:44:21;101117.81;;;4.31;97.41
75192;BME280;63771;52.580;9.734;2023-02-22T06:46:48;101122.88;;;4.31;97.29
75192;BME280;63771;52.580;9.734;2023-02-22T06:49:18;101121.97;;;4.30;97.31
75192;BME280;63771;52.580;9.734;2023-02-22T06:51:43;101123.59;;;4.30;97.19
75192;BME280;63771;52.580;9.734;2023-02-22T06:54:09;101126.13;;;4.30;97.31
75192;BME280;63771;52.580;9.734;2023-02-22T06:56:34;101121.81;;;4.29;97.52
75192;BME280;63771;52.580;9.734;2023-02-22T06:59:00;101131.19;;;4.30;97.54
75192;BME280;63771;52.580;9.734;2023-02-22T07:01:28;101120.34;;;4.31;97.51
75192;BME280;63771;52.580;9.734;2023-02-22T07:03:53;101121.41;;;4.33;97.76
75192;BME280;63771;52.580;9.734;2023-02-22T07:06:19;101124.44;;;4.37;97.87
75192;BME280;63771;52.580;9.734;2023-02-22T07:08:44;101123.91;;;4.40;97.75
75192;BME280;63771;52.580;9.734;2023-02-22T07:11:10;101123.34;;;4.42;97.87
75192;BME280;63771;52.580;9.734;2023-02-22T07:13:35;101125.31;;;4.45;97.88
75192;BME280;63771;52.580;9.734;2023-02-22T07:16:00;101126.38;;;4.47;97.94
75192;BME280;63771;52.580;9.734;2023-02-22T07:18:26;101124.94;;;4.49;97.90
75192;BME280;63771;52.580;9.734;2023-02-22T07:20:51;101120.22;;;4.52;97.90
75192;BME280;63771;52.580;9.734;2023-02-22T07:23:17;101127.41;;;4.56;98.03
75192;BME280;63771;52.580;9.734;2023-02-22T07:25:43;101121.78;;;4.59;98.04
75192;BME280;63771;52.580;9.734;2023-02-22T07:28:09;101127.03;;;4.60;98.06
75192;BME280;63771;52.580;9.734;2023-02-22T07:30:35;101113.09;;;4.64;98.08
75192;BME280;63771;52.580;9.734;2023-02-22T07:33:03;101120.47;;;4.69;98.31
75192;BME280;63771;52.580;9.734;2023-02-22T07:35:34;101124.38;;;4.75;98.47
75192;BME280;63771;52.580;9.734;2023-02-22T07:38:04;101114.28;;;4.75;98.30
75192;BME280;63771;52.580;9.734;2023-02-22T07:40:30;101118.56;;;4.83;98.53
75192;BME280;63771;52.580;9.734;2023-02-22T07:43:04;101113.28;;;4.88;98.62
75192;BME280;63771;52.580;9.734;2023-02-22T07:45:36;101115.75;;;4.95;98.85
75192;BME280;63771;52.580;9.734;2023-02-22T07:48:03;101110.66;;;5.03;99.16
75192;BME280;63771;52.580;9.734;2023-02-22T07:50:30;101114.91;;;5.11;99.14
75192;BME280;63771;52.580;9.734;2023-02-22T07:52:57;101114.88;;;5.18;99.33
75192;BME280;63771;52.580;9.734;2023-02-22T07:55:26;101115.28;;;5.30;99.34
75192;BME280;63771;52.580;9.734;2023-02-22T07:57:53;101113.56;;;5.37;99.33
75192;BME280;63771;52.580;9.734;2023-02-22T08:00:22;101111.91;;;5.45;99.43
75192;BME280;63771;52.580;9.734;2023-02-22T08:02:48;101109.47;;;5.54;99.36
75192;BME280;63771;52.580;9.734;2023-02-22T08:05:14;101108.09;;;5.64;99.49
75192;BME280;63771;52.580;9.734;2023-02-22T08:07:40;101098.03;;;5.73;99.85
75192;BME280;63771;52.580;9.734;2023-02-22T08:10:06;101099.75;;;5.81;99.80
75192;BME280;63771;52.580;9.734;2023-02-22T08:12:33;101101.63;;;5.91;99.62
75192;BME280;63771;52.580;9.734;2023-02-22T08:14:59;101095.75;;;5.99;99.71
75192;BME280;63771;52.580;9.734;2023-02-22T08:17:24;101094.06;;;6.07;99.71
75192;BME280;63771;52.580;9.734;2023-02-22T08:19:50;101094.09;;;6.15;99.64
75192;BME280;63771;52.580;9.734;2023-02-22T08:22:15;101081.03;;;6.19;100.00
75192;BME280;63771;52.580;9.734;2023-02-22T08:24:40;101093.34;;;6.32;99.84
75192;BME280;63771;52.580;9.734;2023-02-22T08:27:06;101092.50;;;6.40;99.84
75192;BME280;63771;52.580;9.734;2023-02-22T08:29:31;101095.09;;;6.49;99.58
75192;BME280;63771;52.580;9.734;2023-02-22T08:32:00;101098.41;;;6.57;99.54
75192;BME280;63771;52.580;9.734;2023-02-22T08:34:26;101097.44;;;6.63;99.64
75192;BME280;63771;52.580;9.734;2023-02-22T08:36:52;101094.19;;;6.73;99.78
75192;BME280;63771;52.580;9.734;2023-02-22T08:39:17;101093.50;;;6.83;99.49
75192;BME280;63771;52.580;9.734;2023-02-22T08:41:43;101091.16;;;6.93;99.42
75192;BME280;63771;52.580;9.734;2023-02-22T08:44:08;101091.34;;;7.03;99.53
75192;BME280;63771;52.580;9.734;2023-02-22T08:46:34;101088.84;;;7.12;99.36
75192;BME280;63771;52.580;9.734;2023-02-22T08:48:59;101089.94;;;7.22;99.44
75192;BME280;63771;52.580;9.734;2023-02-22T08:51:25;101084.72;;;7.29;99.37
75192;BME280;63771;52.580;9.734;2023-02-22T08:53:50;101079.06;;;7.41;99.25
75192;BME280;63771;52.580;9.734;2023-02-22T08:56:17;101075.81;;;7.50;99.00
75192;BME280;63771;52.580;9.734;2023-02-22T08:58:42;101078.38;;;7.59;98.69
75192;BME280;63771;52.580;9.734;2023-02-22T09:01:08;101079.13;;;7.67;98.46
75192;BME280;63771;52.580;9.734;2023-02-22T09:03:33;101079.00;;;7.74;98.50
75192;BME280;63771;52.580;9.734;2023-02-22T09:05:58;101070.66;;;7.83;98.09
75192;BME280;63771;52.580;9.734;2023-02-22T09:08:24;101071.25;;;7.90;97.52
75192;BME280;63771;52.580;9.734;2023-02-22T09:10:49;101077.94;;;7.98;97.15
75192;BME280;63771;52.580;9.734;2023-02-22T09:13:15;101071.84;;;8.04;96.89
75192;BME280;63771;52.580;9.734;2023-02-22T09:15:40;101075.88;;;8.11;96.71
75192;BME280;63771;52.580;9.734;2023-02-22T09:18:07;101065.97;;;8.14;96.66
75192;BME280;63771;52.580;9.734;2023-02-22T09:20:34;101075.41;;;8.24;96.25
75192;BME280;63771;52.580;9.734;2023-02-22T09:23:00;101073.63;;;8.31;95.36
75192;BME280;63771;52.580;9.734;2023-02-22T09:25:28;101067.34;;;8.36;94.91
75192;BME280;63771;52.580;9.734;2023-02-22T09:27:54;101066.16;;;8.42;94.89
75192;BME280;63771;52.580;9.734;2023-02-22T09:30:27;101066.13;;;8.50;94.55
75192;BME280;63771;52.580;9.734;2023-02-22T09:32:58;101069.41;;;8.58;94.40
75192;BME280;63771;52.580;9.734;2023-02-22T09:35:24;101060.69;;;8.65;94.23
75192;BME280;63771;52.580;9.734;2023-02-22T09:37:54;101063.22;;;8.73;93.90
75192;BME280;63771;52.580;9.734;2023-02-22T09:40:21;101063.94;;;8.81;93.33
75192;BME280;63771;52.580;9.734;2023-02-22T09:45:33;101048.19;;;8.94;92.68
75192;BME280;63771;52.580;9.734;2023-02-22T09:48:06;101046.97;;;8.99;92.60
75192;BME280;63771;52.580;9.734;2023-02-22T09:50:38;101048.56;;;9.07;91.47
75192;BME280;63771;52.580;9.734;2023-02-22T09:53:34;101044.66;;;9.10;91.21
75192;BME280;63771;52.580;9.734;2023-02-22T09:56:10;101051.19;;;9.17;91.08
75192;BME280;63771;52.580;9.734;2023-02-22T09:58:40;101046.41;;;9.20;91.13
75192;BME280;63771;52.580;9.734;2023-02-22T10:04:22;101041.25;;;9.29;90.60
75192;BME280;63771;52.580;9.734;2023-02-22T10:09:21;101032.25;;;9.32;90.04
75192;BME280;63771;52.580;9.734;2023-02-22T10:12:10;101034.88;;;9.43;89.75
75192;BME280;63771;52.580;9.734;2023-02-22T10:22:38;101027.53;;;9.64;89.05
75192;BME280;63771;52.580;9.734;2023-02-22T10:25:13;101018.81;;;9.71;89.03
75192;BME280;63771;52.580;9.734;2023-02-22T10:27:44;101025.06;;;9.75;88.56
75192;BME280;63771;52.580;9.734;2023-02-22T10:30:29;101017.06;;;9.80;88.30
75192;BME280;63771;52.580;9.734;2023-02-22T10:33:19;101007.91;;;9.82;88.38
75192;BME280;63771;52.580;9.734;2023-02-22T10:35:45;101009.06;;;9.86;88.24
75192;BME280;63771;52.580;9.734;2023-02-22T10:38:20;101006.94;;;9.90;88.13
75192;BME280;63771;52.580;9.734;2023-02-22T10:41:20;101005.56;;;9.94;87.19
75192;BME280;63771;52.580;9.734;2023-02-22T10:43:48;100999.56;;;9.93;87.03
75192;BME280;63771;52.580;9.734;2023-02-22T10:46:16;100987.72;;;9.94;87.40
75192;BME280;63771;52.580;9.734;2023-02-22T10:48:44;100996.78;;;10.01;87.28
75192;BME280;63771;52.580;9.734;2023-02-22T10:51:11;100998.84;;;10.05;87.50
75192;BME280;63771;52.580;9.734;2023-02-22T10:53:37;100998.38;;;10.09;87.19
75192;BME280;63771;52.580;9.734;2023-02-22T10:58:45;100995.22;;;10.22;87.16
75192;BME280;63771;52.580;9.734;2023-02-22T11:01:33;100993.13;;;10.26;87.39
75192;BME280;63771;52.580;9.734;2023-02-22T11:04:15;100989.44;;;10.33;87.34
75192;BME280;63771;52.580;9.734;2023-02-22T11:06:45;100982.72;;;10.43;85.90
75192;BME280;63771;52.580;9.734;2023-02-22T11:11:37;100982.50;;;10.51;86.32
75192;BME280;63771;52.580;9.734;2023-02-22T11:14:04;100982.00;;;10.55;86.18
75192;BME280;63771;52.580;9.734;2023-02-22T11:19:14;100980.38;;;10.65;86.12
75192;BME280;63771;52.580;9.734;2023-02-22T11:21:41;100971.31;;;10.69;85.78
75192;BME280;63771;52.580;9.734;2023-02-22T11:24:11;100961.38;;;10.72;85.35
75192;BME280;63771;52.580;9.734;2023-02-22T11:26:44;100965.44;;;10.80;85.10
75192;BME280;63771;52.580;9.734;2023-02-22T11:29:24;100956.28;;;10.82;84.88
75192;BME280;63771;52.580;9.734;2023-02-22T11:31:50;100947.97;;;10.85;84.94
75192;BME280;63771;52.580;9.734;2023-02-22T11:34:35;100944.31;;;10.91;84.32
75192;BME280;63771;52.580;9.734;2023-02-22T11:39:40;100945.94;;;11.01;83.46
75192;BME280;63771;52.580;9.734;2023-02-22T11:42:25;100939.56;;;11.06;83.85
75192;BME280;63771;52.580;9.734;2023-02-22T11:45:19;100935.88;;;11.13;83.99
75192;BME280;63771;52.580;9.734;2023-02-22T11:47:56;100929.34;;;11.16;83.99
75192;BME280;63771;52.580;9.734;2023-02-22T11:50:32;100939.31;;;11.23;83.97
75192;BME280;63771;52.580;9.734;2023-02-22T11:56:15;100928.44;;;11.36;83.03
75192;BME280;63771;52.580;9.734;2023-02-22T12:01:42;100928.41;;;11.46;82.87
75192;BME280;63771;52.580;9.734;2023-02-22T12:09:31;100922.09;;;11.63;82.19
75192;BME280;63771;52.580;9.734;2023-02-22T12:12:11;100916.59;;;11.69;82.48
75192;BME280;63771;52.580;9.734;2023-02-22T12:17:54;100909.78;;;11.80;81.64
75192;BME280;63771;52.580;9.734;2023-02-22T12:20:30;100905.59;;;11.80;81.42
75192;BME280;63771;52.580;9.734;2023-02-22T12:26:04;100897.66;;;11.87;80.46
75192;BME280;63771;52.580;9.734;2023-02-22T12:29:11;100896.09;;;11.89;80.48
75192;BME280;63771;52.580;9.734;2023-02-22T12:31:42;100895.47;;;11.92;81.23
75192;BME280;63771;52.580;9.734;2023-02-22T12:36:42;100888.53;;;12.01;81.01
75192;BME280;63771;52.580;9.734;2023-02-22T12:42:23;100884.47;;;12.15;80.19
75192;BME280;63771;52.580;9.734;2023-02-22T12:44:57;100884.06;;;12.20;79.84
75192;BME280;63771;52.580;9.734;2023-02-22T12:47:30;100877.41;;;12.22;80.04
75192;BME280;63771;52.580;9.734;2023-02-22T12:50:04;100875.84;;;12.24;79.92
75192;BME280;63771;52.580;9.734;2023-02-22T12:55:31;100870.31;;;12.30;80.18
75192;BME280;63771;52.580;9.734;2023-02-22T13:00:34;100869.00;;;12.35;80.30
75192;BME280;63771;52.580;9.734;2023-02-22T13:03:34;100855.69;;;12.39;80.15
75192;BME280;63771;52.580;9.734;2023-02-22T13:11:42;100850.03;;;12.43;78.74
75192;BME280;63771;52.580;9.734;2023-02-22T13:24:25;100850.84;;;12.54;79.17
75192;BME280;63771;52.580;9.734;2023-02-22T13:29:56;100835.69;;;12.57;79.10
75192;BME280;63771;52.580;9.734;2023-02-22T13:32:47;100831.97;;;12.64;78.76
75192;BME280;63771;52.580;9.734;2023-02-22T13:35:40;100833.75;;;12.65;78.51
75192;BME280;63771;52.580;9.734;2023-02-22T13:41:10;100830.19;;;12.74;77.85
75192;BME280;63771;52.580;9.734;2023-02-22T13:44:12;100826.84;;;12.75;78.12
75192;BME280;63771;52.580;9.734;2023-02-22T13:52:23;100825.44;;;12.79;78.03
75192;BME280;63771;52.580;9.734;2023-02-22T13:54:53;100819.38;;;12.78;77.46
75192;BME280;63771;52.580;9.734;2023-02-22T14:00:21;100816.97;;;12.80;76.95
75192;BME280;63771;52.580;9.734;2023-02-22T14:10:45;100821.06;;;12.78;78.13
75192;BME280;63771;52.580;9.734;2023-02-22T14:13:12;100812.38;;;12.76;78.19
75192;BME280;63771;52.580;9.734;2023-02-22T14:18:22;100807.38;;;12.77;77.10
75192;BME280;63771;52.580;9.734;2023-02-22T14:21:07;100810.06;;;12.79;77.61
75192;BME280;63771;52.580;9.734;2023-02-22T14:23:44;100803.91;;;12.77;77.78
75192;BME280;63771;52.580;9.734;2023-02-22T14:26:23;100814.16;;;12.77;77.41
75192;BME280;63771;52.580;9.734;2023-02-22T14:28:52;100804.72;;;12.76;77.80
75192;BME280;63771;52.580;9.734;2023-02-22T14:31:20;100796.13;;;12.75;78.07
75192;BME280;63771;52.580;9.734;2023-02-22T14:34:14;100801.25;;;12.75;78.07
75192;BME280;63771;52.580;9.734;2023-02-22T14:41:57;100789.00;;;12.71;77.44
75192;BME280;63771;52.580;9.734;2023-02-22T14:44:30;100788.91;;;12.70;77.74
75192;BME280;63771;52.580;9.734;2023-02-22T14:47:01;100787.13;;;12.69;77.68
75192;BME280;63771;52.580;9.734;2023-02-22T14:49:32;100780.97;;;12.67;77.84
75192;BME280;63771;52.580;9.734;2023-02-22T14:52:05;100786.09;;;12.67;77.79
75192;BME280;63771;52.580;9.734;2023-02-22T14:54:48;100780.97;;;12.67;77.94
75192;BME280;63771;52.580;9.734;2023-02-22T14:57:27;100773.84;;;12.63;78.42
75192;BME280;63771;52.580;9.734;2023-02-22T15:00:11;100781.75;;;12.66;78.25
75192;BME280;63771;52.580;9.734;2023-02-22T15:02:45;100784.31;;;12.66;78.03
75192;BME280;63771;52.580;9.734;2023-02-22T15:05:13;100788.44;;;12.64;78.20
75192;BME280;63771;52.580;9.734;2023-02-22T15:07:39;100784.97;;;12.63;78.50
75192;BME280;63771;52.580;9.734;2023-02-22T15:10:29;100780.53;;;12.61;78.43
75192;BME280;63771;52.580;9.734;2023-02-22T15:12:57;100782.09;;;12.59;78.63
75192;BME280;63771;52.580;9.734;2023-02-22T15:15:34;100778.66;;;12.58;78.46
75192;BME280;63771;52.580;9.734;2023-02-22T15:18:00;100781.84;;;12.56;78.69
75192;BME280;63771;52.580;9.734;2023-02-22T15:20:25;100781.75;;;12.54;78.71
75192;BME280;63771;52.580;9.734;2023-02-22T15:22:57;100777.41;;;12.53;78.93